Time;durP1;ratioP1;P1;durP2;ratioP2;P2;SDS_P1;SDS_P2;PMS_P1;PMS_P2;Temp;Humidity;BMP_temperature;BMP_pressure;BME280_temperature;BME280_humidity;BME280_pressure;Samples;Min_cycle;Max_cycle;Signal;HPM_P1;HPM_P2
2021/10/27 00:01:57;;;;;;;8.50;6.13;;;8.20;94.70;;;;;;4980145;28;20099;-90
2021/10/27 00:04:23;;;;;;;9.95;6.30;;;8.20;94.70;;;;;;4976451;28;20066;-92
2021/10/27 00:06:48;;;;;;;8.73;6.35;;;8.10;94.60;;;;;;4975097;28;20030;-92
2021/10/27 00:09:14;;;;;;;7.82;5.82;;;8.00;94.60;;;;;;4975863;28;20458;-92
2021/10/27 00:11:39;;;;;;;9.57;6.45;;;8.00;94.70;;;;;;4979758;28;20393;-91
2021/10/27 00:14:05;;;;;;;9.25;6.25;;;7.90;94.70;;;;;;4972719;28;20026;-91
2021/10/27 00:16:32;;;;;;;9.02;5.93;;;7.90;94.80;;;;;;4967923;28;20064;-91
2021/10/27 00:18:58;;;;;;;9.68;5.55;;;7.90;94.80;;;;;;4972906;28;20294;-92
2021/10/27 00:21:23;;;;;;;7.70;5.68;;;7.90;94.80;;;;;;4970579;28;20036;-91
2021/10/27 00:23:49;;;;;;;9.02;5.32;;;7.90;95.00;;;;;;4987032;28;20054;-92
2021/10/27 00:26:14;;;;;;;7.00;5.55;;;7.90;94.80;;;;;;4970863;28;20048;-91
2021/10/27 00:28:40;;;;;;;7.15;5.38;;;7.90;94.80;;;;;;4967769;28;20041;-91
2021/10/27 00:31:05;;;;;;;9.15;5.85;;;7.90;94.90;;;;;;4970914;28;20026;-91
2021/10/27 00:33:31;;;;;;;7.90;5.95;;;7.90;94.80;;;;;;4971864;28;20030;-91
2021/10/27 00:35:57;;;;;;;8.27;5.90;;;7.90;94.80;;;;;;4976693;28;20531;-91
2021/10/27 00:38:22;;;;;;;8.55;5.55;;;7.90;94.80;;;;;;4970037;28;20052;-90
2021/10/27 00:40:48;;;;;;;8.80;5.68;;;7.90;94.90;;;;;;4966449;28;20034;-92
2021/10/27 00:43:14;;;;;;;8.32;5.80;;;7.80;94.80;;;;;;4971983;28;20044;-92
2021/10/27 00:45:40;;;;;;;6.70;5.25;;;7.80;94.90;;;;;;4972481;28;20037;-92
2021/10/27 00:48:06;;;;;;;11.05;5.60;;;7.80;94.90;;;;;;4972165;28;20019;-92
2021/10/27 00:50:32;;;;;;;8.85;5.82;;;7.80;94.90;;;;;;4965853;28;20018;-91
2021/10/27 00:52:58;;;;;;;6.72;5.20;;;7.80;94.90;;;;;;4970949;28;20085;-91
2021/10/27 00:55:25;;;;;;;8.00;5.35;;;7.80;94.90;;;;;;4973450;28;20033;-92
2021/10/27 00:57:52;;;;;;;6.90;4.97;;;7.80;94.90;;;;;;4979107;28;20477;-90
2021/10/27 01:00:18;;;;;;;7.68;5.32;;;7.80;94.90;;;;;;4971947;28;20117;-91
2021/10/27 01:02:43;;;;;;;7.50;4.90;;;7.80;94.90;;;;;;4987523;28;20054;-91
2021/10/27 01:05:10;;;;;;;7.63;4.78;;;7.80;94.90;;;;;;4976635;28;20073;-90
2021/10/27 01:07:36;;;;;;;7.47;5.22;;;7.70;94.80;;;;;;4993126;28;20113;-92
2021/10/27 01:10:03;;;;;;;7.32;4.90;;;7.70;94.80;;;;;;4971390;28;20080;-91
2021/10/27 01:12:28;;;;;;;8.25;5.18;;;7.70;94.80;;;;;;4976952;28;20023;-91
2021/10/27 01:14:54;;;;;;;5.30;4.50;;;7.70;94.80;;;;;;4982766;28;20031;-91
2021/10/27 01:17:19;;;;;;;7.20;4.95;;;7.60;94.70;;;;;;4993221;28;20050;-91
2021/10/27 01:19:59;;;;;;;8.02;4.65;;;7.60;94.70;;;;;;4977842;28;20080;-92
2021/10/27 01:22:37;;;;;;;6.18;4.95;;;7.50;94.90;;;;;;4969783;28;20085;-92
2021/10/27 01:25:07;;;;;;;7.53;4.47;;;7.50;94.80;;;;;;4981605;28;20057;-91
2021/10/27 01:27:32;;;;;;;5.95;4.93;;;7.50;94.80;;;;;;4967524;28;20110;-92
2021/10/27 01:29:59;;;;;;;6.65;5.07;;;7.50;94.80;;;;;;4970116;28;20129;-92
2021/10/27 01:32:38;;;;;;;6.35;4.95;;;7.40;94.80;;;;;;4976816;28;20037;-92
2021/10/27 01:35:06;;;;;;;7.20;5.18;;;7.40;94.80;;;;;;4972887;28;20080;-92
2021/10/27 01:37:32;;;;;;;28.40;6.05;;;7.30;94.80;;;;;;4973589;28;20037;-92
2021/10/27 01:39:57;;;;;;;11.40;6.15;;;7.30;94.70;;;;;;4972444;28;20031;-92
2021/10/27 01:42:23;;;;;;;8.43;6.05;;;7.20;94.60;;;;;;4969893;28;20058;-92
2021/10/27 01:44:49;;;;;;;6.75;5.13;;;7.20;94.70;;;;;;4972531;28;20105;-92
2021/10/27 01:47:15;;;;;;;6.38;5.22;;;7.10;94.80;;;;;;4973514;28;20049;-91
2021/10/27 01:49:41;;;;;;;8.00;6.05;;;7.10;94.80;;;;;;4973700;28;20050;-91
2021/10/27 01:52:07;;;;;;;6.05;5.13;;;7.10;94.90;;;;;;4976592;28;20434;-90
2021/10/27 01:54:32;;;;;;;5.57;4.50;;;7.10;95.00;;;;;;4968669;28;20173;-91
2021/10/27 01:56:58;;;;;;;5.95;5.20;;;7.10;94.90;;;;;;4975988;28;20026;-91
2021/10/27 01:59:24;;;;;;;7.93;5.78;;;7.10;94.90;;;;;;4966157;28;20117;-92
2021/10/27 02:01:50;;;;;;;7.05;5.40;;;7.10;94.90;;;;;;4970851;28;20026;-92
2021/10/27 02:04:20;;;;;;;6.28;5.30;;;7.10;94.90;;;;;;4976231;28;20065;-92
2021/10/27 02:06:46;;;;;;;7.50;5.55;;;7.10;94.90;;;;;;4976840;28;20025;-92
2021/10/27 02:09:12;;;;;;;11.10;6.90;;;7.00;95.10;;;;;;4971428;28;20034;-92
2021/10/27 02:11:38;;;;;;;11.20;6.40;;;7.00;94.90;;;;;;4993060;28;20033;-92
2021/10/27 02:14:03;;;;;;;8.45;6.07;;;7.00;94.90;;;;;;4989272;28;20023;-91
2021/10/27 02:16:30;;;;;;;7.95;5.82;;;7.00;94.90;;;;;;4979957;28;20130;-91
2021/10/27 02:18:55;;;;;;;7.90;5.95;;;7.00;94.90;;;;;;4973151;28;20025;-91
2021/10/27 02:23:50;;;;;;;7.00;5.50;;;6.90;94.80;;;;;;4991022;28;20092;-70
2021/10/27 02:26:16;;;;;;;7.97;6.22;;;6.90;94.90;;;;;;4981300;28;20038;-70
2021/10/27 02:28:42;;;;;;;7.65;6.10;;;6.90;94.90;;;;;;4994789;28;20033;-70
2021/10/27 02:31:08;;;;;;;10.73;6.07;;;6.90;94.90;;;;;;4968026;28;20030;-71
2021/10/27 02:33:33;;;;;;;10.13;5.85;;;6.80;94.90;;;;;;4987109;28;20065;-71
2021/10/27 02:35:59;;;;;;;10.98;6.35;;;6.80;94.80;;;;;;4977836;28;20025;-71
2021/10/27 02:38:24;;;;;;;11.98;6.95;;;6.80;94.80;;;;;;4984644;28;20062;-70
2021/10/27 02:40:50;;;;;;;12.50;7.07;;;6.70;94.80;;;;;;4974363;28;20133;-71
2021/10/27 02:43:16;;;;;;;12.45;6.72;;;6.70;94.90;;;;;;4990397;28;20023;-69
2021/10/27 02:45:46;;;;;;;9.93;6.70;;;6.70;95.00;;;;;;4967793;28;20038;-70
2021/10/27 02:48:13;;;;;;;15.43;7.53;;;6.70;95.00;;;;;;4989500;28;20022;-71
2021/10/27 02:50:39;;;;;;;11.70;7.93;;;6.70;95.00;;;;;;4970276;28;20042;-70
2021/10/27 02:53:05;;;;;;;10.35;6.20;;;6.60;94.90;;;;;;4979696;28;20537;-70
2021/10/27 02:55:32;;;;;;;9.98;6.10;;;6.60;95.00;;;;;;4972986;28;20162;-71
2021/10/27 02:57:59;;;;;;;7.78;5.55;;;6.60;95.00;;;;;;4987005;28;20029;-70
2021/10/27 03:00:26;;;;;;;9.43;6.00;;;6.60;95.10;;;;;;4984750;28;20121;-70
2021/10/27 03:02:52;;;;;;;8.63;5.75;;;6.60;95.10;;;;;;4970535;28;20058;-71
2021/10/27 03:05:17;;;;;;;7.30;5.10;;;6.60;95.00;;;;;;4973243;28;20516;-71
2021/10/27 03:07:43;;;;;;;7.20;5.25;;;6.60;95.10;;;;;;4982989;28;20482;-70
2021/10/27 03:10:09;;;;;;;6.63;5.55;;;6.70;95.20;;;;;;4997073;28;20031;-70
2021/10/27 03:12:34;;;;;;;7.35;5.47;;;6.70;95.10;;;;;;4985127;28;20076;-69
2021/10/27 03:15:00;;;;;;;8.63;5.90;;;6.70;95.20;;;;;;4988256;28;20065;-71
2021/10/27 03:17:26;;;;;;;8.48;5.60;;;6.70;95.20;;;;;;4972272;28;20490;-70
2021/10/27 03:19:51;;;;;;;10.70;6.38;;;6.70;95.10;;;;;;4992659;28;20027;-71
2021/10/27 03:22:17;;;;;;;7.53;6.00;;;6.70;95.20;;;;;;4981447;28;20106;-70
2021/10/27 03:24:43;;;;;;;7.57;5.60;;;6.70;95.20;;;;;;4966883;28;20043;-69
2021/10/27 03:27:08;;;;;;;8.20;5.65;;;6.70;95.20;;;;;;4998511;28;20562;-71
2021/10/27 03:29:34;;;;;;;7.13;4.78;;;6.70;95.20;;;;;;4987031;28;20030;-71
2021/10/27 03:32:01;;;;;;;6.35;5.00;;;6.70;95.10;;;;;;4973311;28;20030;-70
2021/10/27 03:34:27;;;;;;;9.68;5.72;;;6.60;95.10;;;;;;4962236;28;20031;-71
2021/10/27 03:36:53;;;;;;;8.35;5.63;;;6.60;95.10;;;;;;4986343;28;20041;-70
2021/10/27 03:39:19;;;;;;;9.27;5.93;;;6.60;95.20;;;;;;4988323;28;20037;-70
2021/10/27 03:41:46;;;;;;;8.88;5.72;;;6.60;95.30;;;;;;4977582;28;20022;-71
2021/10/27 03:44:12;;;;;;;7.25;5.07;;;6.60;95.30;;;;;;4996703;28;20057;-70
2021/10/27 03:46:38;;;;;;;8.00;5.53;;;6.70;95.30;;;;;;4996839;28;20034;-70
2021/10/27 03:49:04;;;;;;;8.73;5.68;;;6.70;95.40;;;;;;4988462;28;20023;-70
2021/10/27 03:51:30;;;;;;;8.50;5.50;;;6.70;95.30;;;;;;4988062;28;20022;-71
2021/10/27 03:53:56;;;;;;;7.03;4.78;;;6.70;95.30;;;;;;4978374;28;20031;-70
2021/10/27 03:56:21;;;;;;;5.95;4.38;;;6.60;95.20;;;;;;5000832;28;20030;-71
2021/10/27 03:58:47;;;;;;;7.35;4.75;;;6.60;95.30;;;;;;4991003;28;20022;-70
2021/10/27 04:01:13;;;;;;;8.30;4.50;;;6.60;95.30;;;;;;4991941;28;20035;-71
2021/10/27 04:03:38;;;;;;;6.50;4.85;;;6.60;95.30;;;;;;4974110;28;20038;-70
2021/10/27 04:06:04;;;;;;;8.35;5.13;;;6.60;95.30;;;;;;4990557;28;20493;-70
2021/10/27 04:08:30;;;;;;;6.88;4.65;;;6.60;95.30;;;;;;4984077;28;20630;-71
2021/10/27 04:10:56;;;;;;;6.28;4.20;;;6.60;95.30;;;;;;4979057;28;20022;-70
2021/10/27 04:13:23;;;;;;;5.70;4.15;;;6.60;95.30;;;;;;4993836;28;20041;-70
2021/10/27 04:15:48;;;;;;;5.38;4.47;;;6.60;95.30;;;;;;4977754;28;20359;-70
2021/10/27 04:18:14;;;;;;;5.40;4.47;;;6.50;95.30;;;;;;4980714;28;20045;-71
2021/10/27 04:20:40;;;;;;;5.97;4.57;;;6.50;95.20;;;;;;4998221;28;20030;-71
2021/10/27 04:23:07;;;;;;;7.00;4.13;;;6.50;95.20;;;;;;4993956;28;20037;-70
2021/10/27 04:25:33;;;;;;;6.82;4.50;;;6.40;95.20;;;;;;4994204;28;20033;-69
2021/10/27 04:27:59;;;;;;;4.60;4.13;;;6.40;95.20;;;;;;4983408;28;20414;-70
2021/10/27 04:30:24;;;;;;;5.00;3.72;;;6.40;95.20;;;;;;4978659;28;20089;-69
2021/10/27 04:32:50;;;;;;;6.97;4.35;;;6.40;95.20;;;;;;4980916;28;20113;-70
2021/10/27 04:35:16;;;;;;;5.28;4.47;;;6.30;95.10;;;;;;4980636;28;20037;-70
2021/10/27 04:37:44;;;;;;;6.80;4.13;;;6.30;95.10;;;;;;4989222;28;20027;-70
2021/10/27 04:40:15;;;;;;;5.43;4.25;;;6.30;95.20;;;;;;4996917;28;20057;-70
2021/10/27 04:42:41;;;;;;;5.97;4.43;;;6.30;95.20;;;;;;4992433;28;20053;-71
2021/10/27 04:45:08;;;;;;;5.78;4.35;;;6.20;95.20;;;;;;4994760;28;20621;-70
2021/10/27 04:47:34;;;;;;;6.00;4.50;;;6.30;95.20;;;;;;4992720;28;20109;-71
2021/10/27 04:50:00;;;;;;;4.88;4.30;;;6.20;95.00;;;;;;4993929;28;20023;-71
2021/10/27 04:52:26;;;;;;;6.72;4.50;;;6.20;95.00;;;;;;4988747;28;20076;-70
2021/10/27 04:54:52;;;;;;;5.15;3.90;;;6.20;95.00;;;;;;4993562;28;20646;-70
2021/10/27 04:57:18;;;;;;;6.82;4.88;;;6.10;94.90;;;;;;4991511;28;20045;-68
2021/10/27 04:59:44;;;;;;;7.05;4.90;;;6.00;95.00;;;;;;4962636;28;20114;-71
2021/10/27 05:02:16;;;;;;;7.25;4.88;;;6.00;95.00;;;;;;4975389;28;20160;-70
2021/10/27 05:04:43;;;;;;;7.07;4.35;;;5.90;95.10;;;;;;4978944;28;20033;-69
2021/10/27 05:07:11;;;;;;;5.88;4.40;;;5.90;95.10;;;;;;4994703;28;20027;-70
2021/10/27 05:09:36;;;;;;;6.85;4.85;;;6.00;95.10;;;;;;4992404;28;20493;-70
2021/10/27 05:12:04;;;;;;;6.20;4.55;;;6.00;95.10;;;;;;4979489;28;20022;-71
2021/10/27 05:14:30;;;;;;;7.45;4.22;;;6.00;95.00;;;;;;4990824;28;20098;-71
2021/10/27 05:16:56;;;;;;;6.28;4.65;;;6.00;95.10;;;;;;4985224;28;20038;-69
2021/10/27 05:19:22;;;;;;;8.25;4.40;;;6.00;95.10;;;;;;4996315;28;20030;-71
2021/10/27 05:21:47;;;;;;;7.70;4.50;;;6.00;95.10;;;;;;4992291;28;20109;-70
2021/10/27 05:24:13;;;;;;;7.72;4.85;;;6.00;95.00;;;;;;4987667;28;20023;-71
2021/10/27 05:26:39;;;;;;;8.40;5.53;;;6.00;94.90;;;;;;4980990;28;20026;-71
2021/10/27 05:29:05;;;;;;;8.10;5.40;;;6.00;94.90;;;;;;4987887;28;20382;-71
2021/10/27 05:31:30;;;;;;;9.02;5.53;;;5.90;94.90;;;;;;4987192;28;20033;-71
2021/10/27 05:33:56;;;;;;;10.13;5.57;;;5.90;94.90;;;;;;4983396;28;20029;-71
2021/10/27 05:36:22;;;;;;;7.80;5.18;;;5.90;95.00;;;;;;4971858;28;20030;-71
2021/10/27 05:38:47;;;;;;;6.97;5.45;;;5.80;95.00;;;;;;4966485;28;20436;-72
2021/10/27 05:41:13;;;;;;;8.40;5.30;;;5.90;95.00;;;;;;4973854;28;20029;-70
2021/10/27 05:43:40;;;;;;;14.15;5.68;;;5.80;94.90;;;;;;4990739;28;20479;-69
2021/10/27 05:46:06;;;;;;;9.13;5.50;;;5.80;94.90;;;;;;4992294;28;20029;-69
2021/10/27 05:48:37;;;;;;;10.57;5.38;;;5.70;94.90;;;;;;4985634;28;20014;-70
2021/10/27 05:56:19;;;;;;;9.00;6.57;;;5.70;94.90;;;;;;4987121;28;20034;-69
2021/10/27 05:58:46;;;;;;;10.40;5.82;;;5.60;94.90;;;;;;4981965;28;20667;-69
2021/10/27 06:01:13;;;;;;;9.30;5.90;;;5.60;95.00;;;;;;4987825;28;20026;-69
2021/10/27 06:03:38;;;;;;;9.00;6.05;;;5.60;95.10;;;;;;4985108;28;20026;-69
2021/10/27 06:06:04;;;;;;;8.13;5.90;;;5.60;95.10;;;;;;4972489;28;20045;-69
2021/10/27 06:08:30;;;;;;;8.63;5.85;;;5.70;95.10;;;;;;4975476;28;20096;-69
2021/10/27 06:10:58;;;;;;;10.15;7.22;;;5.70;95.10;;;;;;4987556;28;20414;-69
2021/10/27 06:13:32;;;;;;;11.25;7.07;;;5.70;95.10;;;;;;4972304;28;20525;-69
2021/10/27 06:15:58;;;;;;;9.80;6.80;;;5.80;95.10;;;;;;4991828;28;20036;-69
2021/10/27 06:18:24;;;;;;;11.30;6.90;;;5.70;95.00;;;;;;4977965;28;20477;-68
2021/10/27 06:20:50;;;;;;;11.60;6.72;;;5.70;95.00;;;;;;4990684;28;20088;-69
2021/10/27 06:23:15;;;;;;;12.52;7.03;;;5.70;95.00;;;;;;4985738;28;20030;-69
2021/10/27 06:25:41;;;;;;;13.90;6.97;;;5.70;95.00;;;;;;4976843;28;20109;-69
2021/10/27 06:28:13;;;;;;;14.57;7.65;;;5.70;95.10;;;;;;4986510;28;20105;-69
2021/10/27 06:30:43;;;;;;;11.88;7.05;;;5.80;95.10;;;;;;4991046;28;20030;-69
2021/10/27 06:33:25;;;;;;;12.05;6.57;;;5.80;95.10;;;;;;4989317;28;20030;-70
2021/10/27 06:35:57;;;;;;;11.48;7.30;;;5.80;95.10;;;;;;4973526;28;20137;-69
2021/10/27 06:38:32;;;;;;;9.75;6.72;;;5.90;95.10;;;;;;4972463;28;20125;-69
2021/10/27 06:46:37;;;;;;;14.25;8.15;;;6.00;95.20;;;;;;4972655;28;20030;-69
2021/10/27 06:49:03;;;;;;;17.40;8.25;;;6.10;95.20;;;;;;4985635;28;20026;-69
2021/10/27 06:51:29;;;;;;;13.93;7.30;;;6.10;95.20;;;;;;4990253;28;20029;-69
2021/10/27 06:53:54;;;;;;;10.30;6.43;;;6.20;95.20;;;;;;4983661;28;20018;-70
2021/10/27 06:56:22;;;;;;;10.88;6.57;;;6.20;95.10;;;;;;4968566;28;20686;-69
2021/10/27 07:01:27;;;;;;;9.23;5.88;;;6.30;95.20;;;;;;4973219;28;20085;-69
2021/10/27 07:17:05;;;;;;;14.10;7.53;;;6.60;95.00;;;;;;4989491;28;20601;-69
2021/10/27 07:19:31;;;;;;;15.82;8.75;;;6.70;95.10;;;;;;4989440;28;20102;-69
2021/10/27 07:21:56;;;;;;;17.58;8.75;;;6.60;95.00;;;;;;4973567;28;20026;-69
2021/10/27 07:24:23;;;;;;;17.60;9.25;;;6.70;95.10;;;;;;4987407;28;20030;-69
2021/10/27 07:26:50;;;;;;;16.60;8.98;;;6.80;95.20;;;;;;4968897;28;20074;-69
2021/10/27 07:29:19;;;;;;;14.50;8.95;;;6.80;95.20;;;;;;4982645;28;20018;-69
2021/10/27 07:31:49;;;;;;;13.80;8.13;;;6.90;95.20;;;;;;4970782;28;20025;-69
2021/10/27 07:34:15;;;;;;;13.15;8.13;;;7.00;95.30;;;;;;4972183;28;20026;-69
2021/10/27 07:41:50;;;;;;;11.15;7.38;;;7.40;95.40;;;;;;4994561;28;20076;-69
2021/10/27 07:44:18;;;;;;;11.00;7.43;;;7.60;95.40;;;;;;4982302;28;20431;-69
2021/10/27 07:46:44;;;;;;;12.77;7.82;;;7.70;95.40;;;;;;4994314;28;20030;-69
2021/10/27 07:49:10;;;;;;;12.77;7.05;;;7.90;95.40;;;;;;4992597;28;20019;-69
2021/10/27 07:51:36;;;;;;;11.20;7.05;;;8.10;95.40;;;;;;4977369;28;20035;-69
2021/10/27 07:54:03;;;;;;;11.30;6.90;;;8.30;95.40;;;;;;4990868;28;20479;-69
2021/10/27 07:56:30;;;;;;;10.73;6.80;;;8.40;95.40;;;;;;4989940;28;20041;-70
2021/10/27 07:58:56;;;;;;;9.48;6.32;;;8.60;95.40;;;;;;4962314;28;20474;-69
2021/10/27 08:01:22;;;;;;;7.03;5.72;;;8.70;95.30;;;;;;4977258;28;20053;-70
2021/10/27 08:03:47;;;;;;;7.40;5.38;;;8.90;95.30;;;;;;4993200;28;20483;-70
2021/10/27 08:06:13;;;;;;;10.35;6.22;;;9.10;95.20;;;;;;4980698;28;20030;-69
2021/10/27 08:08:39;;;;;;;11.00;6.78;;;9.20;95.20;;;;;;4972102;28;20467;-70
2021/10/27 08:11:04;;;;;;;11.98;6.18;;;9.30;95.20;;;;;;4976730;28;20078;-69
2021/10/27 08:13:30;;;;;;;10.80;7.50;;;9.50;95.20;;;;;;4974813;28;20390;-69
2021/10/27 08:15:56;;;;;;;8.68;6.05;;;9.60;95.20;;;;;;4990490;28;20042;-69
2021/10/27 08:18:22;;;;;;;11.50;6.70;;;9.80;95.10;;;;;;4977138;28;20058;-69
2021/10/27 08:20:50;;;;;;;8.32;5.93;;;10.00;95.10;;;;;;4993495;28;20058;-69
2021/10/27 08:23:18;;;;;;;12.07;7.10;;;10.10;95.00;;;;;;5014827;23;20401;-71
2021/10/27 08:25:46;;;;;;;18.15;8.00;;;10.30;94.80;;;;;;5000649;28;20026;-71
2021/10/27 08:28:15;;;;;;;17.15;8.50;;;10.30;94.40;;;;;;4977574;28;20085;-72
2021/10/27 08:33:20;;;;;;;13.80;8.10;;;10.20;94.30;;;;;;4993361;28;20054;-72
2021/10/27 08:35:47;;;;;;;12.75;7.95;;;10.20;94.40;;;;;;4994178;28;20110;-73
2021/10/27 08:38:13;;;;;;;12.90;8.32;;;10.10;94.50;;;;;;4995858;28;20069;-73
2021/10/27 08:40:43;;;;;;;12.75;7.45;;;10.20;94.80;;;;;;4994366;28;20065;-73
2021/10/27 08:43:10;;;;;;;15.40;8.35;;;10.40;95.00;;;;;;4993932;28;20502;-73
2021/10/27 08:45:36;;;;;;;16.25;9.07;;;10.60;95.40;;;;;;4977581;28;20062;-73
2021/10/27 08:48:06;;;;;;;16.35;7.80;;;10.80;94.90;;;;;;5002655;28;20511;-73
2021/10/27 08:50:32;;;;;;;11.70;7.28;;;10.90;94.40;;;;;;5001461;28;20022;-73
2021/10/27 08:52:57;;;;;;;13.70;7.40;;;10.90;94.30;;;;;;5009809;28;20044;-73
2021/10/27 08:55:24;;;;;;;16.02;8.18;;;10.90;94.40;;;;;;5008427;28;20034;-73
2021/10/27 08:57:51;;;;;;;12.43;7.68;;;11.00;94.70;;;;;;5009591;28;20038;-73
2021/10/27 09:00:34;;;;;;;15.82;8.18;;;11.20;94.80;;;;;;5030661;28;20039;-74
2021/10/27 10:06:17;;;;;;;3.25;2.45;;;12.90;93.60;;;;;;5004759;28;20091;-67
2021/10/27 10:08:47;;;;;;;4.63;3.20;;;12.90;93.50;;;;;;5007401;28;20049;-69
2021/10/27 10:11:14;;;;;;;4.20;2.33;;;12.90;93.30;;;;;;4975052;28;20022;-69
2021/10/27 10:13:39;;;;;;;3.03;2.25;;;12.90;93.20;;;;;;4996520;28;20597;-68
2021/10/27 10:16:08;;;;;;;4.57;1.77;;;12.90;93.20;;;;;;4991861;28;20077;-68
2021/10/27 10:18:38;;;;;;;3.88;2.00;;;12.90;93.20;;;;;;4994168;28;20037;-69
2021/10/27 10:21:05;;;;;;;5.38;2.40;;;12.90;93.30;;;;;;5010437;28;20048;-69
2021/10/27 10:23:30;;;;;;;3.67;1.85;;;13.10;93.30;;;;;;5010072;28;20030;-66
2021/10/27 10:26:00;;;;;;;3.42;1.30;;;13.10;93.10;;;;;;5003388;28;20167;-68
2021/10/27 10:28:28;;;;;;;1.58;0.60;;;13.10;93.10;;;;;;5007485;28;20021;-68
2021/10/27 10:30:57;;;;;;;0.50;0.50;;;13.20;92.80;;;;;;5030674;28;20072;-66
2021/10/27 10:33:40;;;;;;;2.10;1.10;;;13.20;92.60;;;;;;5024221;28;20060;-67
2021/10/27 10:36:15;;;;;;;1.15;0.68;;;13.20;92.60;;;;;;5009024;28;20091;-67
2021/10/27 11:38:08;;;;;;;3.40;1.90;;;14.90;90.90;;;;;;4996490;28;20073;-64
2021/10/27 11:40:39;;;;;;;5.38;2.42;;;15.10;90.80;;;;;;5014390;28;20036;-66
2021/10/27 11:43:16;;;;;;;4.43;2.22;;;15.30;90.70;;;;;;5006494;28;20050;-67
2021/10/27 11:48:20;;;;;;;4.57;2.20;;;15.20;90.80;;;;;;5013670;28;20037;-73
2021/10/27 11:50:46;;;;;;;3.88;2.20;;;15.30;90.60;;;;;;5015688;28;20022;-73
2021/10/27 11:53:26;;;;;;;3.00;1.92;;;15.20;90.50;;;;;;5007751;28;20037;-73
2021/10/27 11:55:52;;;;;;;3.25;2.30;;;15.40;90.30;;;;;;4997035;28;20417;-72
2021/10/27 11:58:19;;;;;;;2.03;1.83;;;15.50;90.30;;;;;;5013997;28;20554;-73
2021/10/27 12:00:50;;;;;;;2.42;2.22;;;15.70;90.30;;;;;;4996748;28;20034;-74
2021/10/27 12:03:22;;;;;;;5.45;2.28;;;15.80;90.30;;;;;;5012899;28;20033;-73
2021/10/27 12:05:55;;;;;;;4.43;2.33;;;15.90;90.10;;;;;;5014554;28;20025;-74
2021/10/27 12:08:58;;;;;;;2.88;2.05;;;16.00;90.00;;;;;;5014040;28;20037;-74
2021/10/27 12:19:22;;;;;;;10.70;6.90;;;16.20;89.00;;;;;;5014043;28;20034;-73
2021/10/27 12:22:03;;;;;;;3.53;2.33;;;16.30;88.60;;;;;;4992753;28;20014;-73
2021/10/27 12:24:32;;;;;;;3.22;1.80;;;16.50;88.50;;;;;;4994955;28;20023;-75
2021/10/27 12:29:31;;;;;;;2.50;2.00;;;16.90;88.40;;;;;;4994564;28;20025;-76
2021/10/27 12:32:12;;;;;;;2.22;1.70;;;17.10;87.70;;;;;;5012705;28;20040;-76
2021/10/27 12:34:48;;;;;;;2.67;1.83;;;17.20;85.90;;;;;;4995426;28;20118;-74
2021/10/27 12:40:30;;;;;;;1.63;1.52;;;17.20;85.50;;;;;;5013423;28;20386;-74
2021/10/27 12:43:00;;;;;;;1.67;1.58;;;17.30;85.70;;;;;;4991718;28;20029;-75
2021/10/27 12:45:35;;;;;;;2.08;1.63;;;17.50;85.50;;;;;;5013487;28;20033;-76
2021/10/27 12:48:04;;;;;;;2.05;1.83;;;17.70;85.40;;;;;;4979755;28;20026;-74
2021/10/27 12:50:29;;;;;;;1.92;1.45;;;17.90;85.10;;;;;;4991396;28;20026;-72
2021/10/27 12:53:00;;;;;;;2.35;1.35;;;18.00;84.20;;;;;;4994253;28;20033;-73
2021/10/27 12:55:28;;;;;;;2.45;1.48;;;18.00;83.30;;;;;;5006271;28;20045;-75
2021/10/27 12:58:19;;;;;;;2.30;1.25;;;18.20;84.20;;;;;;5012968;28;20030;-77
2021/10/27 13:06:08;;;;;;;2.58;1.70;;;18.60;82.00;;;;;;5012805;28;20079;-75
2021/10/27 13:22:18;;;;;;;2.20;1.45;;;19.00;80.30;;;;;;5012730;28;20076;-75
2021/10/27 13:30:28;;;;;;;1.25;1.08;;;19.10;79.80;;;;;;4992841;28;20168;-74
2021/10/27 13:32:56;;;;;;;1.47;1.33;;;19.10;79.50;;;;;;4987400;28;20390;-75
2021/10/27 13:35:22;;;;;;;1.17;1.02;;;19.20;79.30;;;;;;5000362;28;20277;-76
2021/10/27 13:37:49;;;;;;;1.75;1.15;;;19.30;79.20;;;;;;4999128;28;20037;-74
2021/10/27 13:40:16;;;;;;;2.38;1.00;;;19.40;78.40;;;;;;4999139;28;20034;-74
2021/10/27 13:42:49;;;;;;;4.10;1.05;;;19.40;78.40;;;;;;5002800;28;20133;-74
2021/10/27 14:06:21;;;;;;;2.03;1.00;;;19.90;76.10;;;;;;4995233;28;20071;-74
2021/10/27 14:11:24;;;;;;;3.17;0.93;;;19.70;76.10;;;;;;4997285;28;20320;-73
2021/10/27 14:16:51;;;;;;;2.63;1.20;;;19.60;75.70;;;;;;5005632;28;20041;-75
2021/10/27 15:21:59;;;;;;;3.33;2.70;;;16.60;77.60;;;;;;4988967;28;20037;-71
2021/10/27 15:32:25;;;;;;;3.25;2.25;;;16.30;78.60;;;;;;4977226;28;20037;-71
2021/10/27 15:34:58;;;;;;;5.57;2.50;;;16.20;78.80;;;;;;4950093;28;20039;-71
2021/10/27 15:43:04;;;;;;;2.28;1.85;;;15.90;79.60;;;;;;4972068;28;20068;-71
2021/10/27 15:50:55;;;;;;;5.93;2.22;;;15.90;80.10;;;;;;4988529;28;20049;-71
2021/10/27 15:53:21;;;;;;;4.13;2.13;;;15.80;80.10;;;;;;4968886;28;20478;-71
2021/10/27 15:55:46;;;;;;;2.55;2.25;;;15.80;80.80;;;;;;4987974;28;20023;-71
2021/10/27 15:58:12;;;;;;;3.67;2.40;;;15.70;80.30;;;;;;4975154;28;20022;-71
2021/10/27 16:00:39;;;;;;;3.05;2.22;;;15.60;80.40;;;;;;4982040;28;20035;-71
2021/10/27 16:03:09;;;;;;;3.25;2.42;;;15.50;80.40;;;;;;4974892;28;20057;-71
2021/10/27 16:05:41;;;;;;;3.88;2.38;;;15.40;80.70;;;;;;4998238;28;20027;-71
2021/10/27 16:08:11;;;;;;;4.22;2.50;;;15.30;80.90;;;;;;4991261;28;20072;-71
2021/10/27 16:10:38;;;;;;;4.35;2.50;;;15.20;81.20;;;;;;4991557;28;20061;-71
2021/10/27 16:13:04;;;;;;;3.20;2.42;;;15.10;81.30;;;;;;4989795;28;20023;-71
2021/10/27 16:15:39;;;;;;;3.90;2.42;;;14.90;81.50;;;;;;4990785;28;20525;-71
2021/10/27 16:18:08;;;;;;;2.85;2.40;;;14.80;81.60;;;;;;4991426;28;20509;-71
2021/10/27 16:20:35;;;;;;;4.93;2.70;;;14.80;81.90;;;;;;4991307;28;20030;-71
2021/10/27 16:23:01;;;;;;;3.13;2.85;;;14.70;82.00;;;;;;4973885;28;20730;-71
2021/10/27 16:25:27;;;;;;;4.20;2.90;;;14.60;82.00;;;;;;4995255;28;20045;-71
2021/10/27 16:27:53;;;;;;;5.00;3.22;;;14.60;82.20;;;;;;4989464;28;20084;-71
2021/10/27 16:30:18;;;;;;;5.88;3.22;;;14.50;82.40;;;;;;4991033;28;20058;-72
2021/10/27 16:32:45;;;;;;;4.25;2.97;;;14.40;82.60;;;;;;4989688;28;20057;-71
2021/10/27 16:35:11;;;;;;;4.40;3.10;;;14.30;83.20;;;;;;4974854;28;20041;-71
2021/10/27 16:37:37;;;;;;;4.10;3.30;;;14.20;82.90;;;;;;4996168;28;20022;-71
2021/10/27 16:40:04;;;;;;;5.70;3.17;;;14.10;83.10;;;;;;5004565;28;20026;-72
2021/10/27 16:42:31;;;;;;;4.50;3.70;;;14.10;83.30;;;;;;4966783;28;20034;-71
2021/10/27 16:44:57;;;;;;;4.78;3.58;;;14.00;83.40;;;;;;4985705;28;20019;-71
2021/10/27 16:47:23;;;;;;;4.10;3.08;;;13.90;83.60;;;;;;4990200;28;20022;-71
2021/10/27 16:49:49;;;;;;;10.15;6.10;;;13.80;83.80;;;;;;4989384;28;20064;-71
2021/10/27 16:52:16;;;;;;;7.82;4.18;;;13.80;84.00;;;;;;4989564;28;20085;-69
2021/10/27 16:54:41;;;;;;;4.55;3.42;;;13.70;84.00;;;;;;4987395;28;20026;-69
2021/10/27 16:57:07;;;;;;;5.80;3.83;;;13.70;84.10;;;;;;4987173;28;20089;-69
2021/10/27 16:59:33;;;;;;;3.50;3.20;;;13.60;84.20;;;;;;4987315;28;20089;-70
2021/10/27 17:01:59;;;;;;;7.05;4.00;;;13.50;84.40;;;;;;4971889;28;20121;-69
2021/10/27 17:04:25;;;;;;;5.05;3.95;;;13.40;84.70;;;;;;4959313;28;20058;-70
2021/10/27 17:06:51;;;;;;;5.32;4.63;;;13.40;84.80;;;;;;4974819;28;20065;-69
2021/10/27 17:09:16;;;;;;;6.88;5.80;;;13.30;85.00;;;;;;4985666;28;20058;-70
2021/10/27 17:11:42;;;;;;;7.47;4.78;;;13.20;85.20;;;;;;4988678;28;20450;-70
2021/10/27 17:14:08;;;;;;;5.45;4.13;;;13.20;85.40;;;;;;4967042;28;20088;-72
2021/10/27 17:16:34;;;;;;;8.15;5.57;;;13.10;85.50;;;;;;4974574;28;20109;-72
2021/10/27 17:19:00;;;;;;;8.85;5.25;;;13.00;85.60;;;;;;4990281;28;20113;-73
2021/10/27 17:21:27;;;;;;;7.68;4.90;;;12.90;85.70;;;;;;4970400;28;20379;-70
2021/10/27 17:23:54;;;;;;;9.07;4.80;;;12.90;86.00;;;;;;4974930;28;20070;-71
2021/10/27 17:26:20;;;;;;;4.70;4.15;;;12.80;86.20;;;;;;4985727;28;20436;-70
2021/10/27 17:28:46;;;;;;;6.78;3.88;;;12.80;86.30;;;;;;4984588;28;20129;-71
2021/10/27 17:31:12;;;;;;;4.47;3.42;;;12.70;86.30;;;;;;4985125;28;20077;-74
2021/10/27 17:33:38;;;;;;;5.30;4.28;;;12.60;86.40;;;;;;4985833;28;20129;-74
2021/10/27 17:36:09;;;;;;;5.70;3.42;;;12.50;86.50;;;;;;4992204;28;20610;-73
2021/10/27 17:38:35;;;;;;;7.53;4.55;;;12.50;86.80;;;;;;4971098;28;20034;-74
2021/10/27 17:41:02;;;;;;;7.85;3.65;;;12.40;86.90;;;;;;4988819;28;20558;-74
2021/10/27 17:43:27;;;;;;;5.47;3.72;;;12.30;87.10;;;;;;4989642;28;20038;-71
2021/10/27 17:45:54;;;;;;;7.07;4.15;;;12.30;87.30;;;;;;4988290;28;20030;-72
2021/10/27 17:48:47;;;;;;;8.68;4.75;;;12.20;87.50;;;;;;4965218;28;20034;-71
2021/10/27 17:51:21;;;;;;;5.82;3.85;;;12.20;87.90;;;;;;4975799;28;20470;-71
2021/10/27 17:59:16;;;;;;;5.15;4.38;;;12.20;88.10;;;;;;4985750;28;20049;-71
2021/10/27 18:01:42;;;;;;;5.40;3.88;;;12.30;88.10;;;;;;4995963;28;20031;-72
2021/10/27 18:04:08;;;;;;;5.60;4.03;;;12.30;88.10;;;;;;4986717;28;20038;-72
2021/10/27 18:06:37;;;;;;;7.32;4.60;;;12.30;88.00;;;;;;4971398;28;20814;-72